sensor_id;sensor_type;location;lat;lon;timestamp;pressure;altitude;pressure_sealevel;temperature;humidity
10145;BME280;5113;41.822;23.564;2023-12-28T00:02:41;-11136.59;;;7.32;56.11
10145;BME280;5113;41.822;23.564;2023-12-28T00:05:49;-11095.03;;;5.81;59.32
10145;BME280;5113;41.822;23.564;2023-12-28T00:08:57;-11120.88;;;6.75;57.93
10145;BME280;5113;41.822;23.564;2023-12-28T00:12:15;-11113.56;;;6.48;58.32
10145;BME280;5113;41.822;23.564;2023-12-28T00:15:22;-11097.56;;;5.90;61.50
10145;BME280;5113;41.822;23.564;2023-12-28T00:18:30;-11109.91;;;6.35;60.17
10145;BME280;5113;41.822;23.564;2023-12-28T00:21:38;-11130.69;;;7.10;58.83
10145;BME280;5113;41.822;23.564;2023-12-28T00:24:45;-11127.63;;;6.99;58.02
10145;BME280;5113;41.822;23.564;2023-12-28T00:27:52;-11142.22;;;7.52;57.16
10145;BME280;5113;41.822;23.564;2023-12-28T00:30:59;-11131.25;;;7.12;57.52
10145;BME280;5113;41.822;23.564;2023-12-28T00:34:06;-11128.88;;;7.04;57.29
10145;BME280;5113;41.822;23.564;2023-12-28T00:37:14;-11113.84;;;6.49;57.68
10145;BME280;5113;41.822;23.564;2023-12-28T00:40:21;-11111.59;;;6.41;56.91
10145;BME280;5113;41.822;23.564;2023-12-28T00:43:28;-11087.72;;;5.55;60.86
10145;BME280;5113;41.822;23.564;2023-12-28T00:46:35;-11084.50;;;5.43;63.39
10145;BME280;5113;41.822;23.564;2023-12-28T00:49:42;-11111.75;;;6.42;59.92
10145;BME280;5113;41.822;23.564;2023-12-28T00:52:51;-11095.59;;;5.83;61.53
10145;BME280;5113;41.822;23.564;2023-12-28T00:55:57;-11111.47;;;6.41;59.40
10145;BME280;5113;41.822;23.564;2023-12-28T00:59:04;-11128.59;;;7.03;58.13
10145;BME280;5113;41.822;23.564;2023-12-28T01:02:10;-11117.38;;;6.62;58.87
10145;BME280;5113;41.822;23.564;2023-12-28T01:05:16;-11122.69;;;6.81;58.86
10145;BME280;5113;41.822;23.564;2023-12-28T01:08:25;-11108.94;;;6.32;59.88
10145;BME280;5113;41.822;23.564;2023-12-28T01:11:33;-11118.34;;;6.66;57.62
10145;BME280;5113;41.822;23.564;2023-12-28T01:14:39;-11101.50;;;6.05;60.08
10145;BME280;5113;41.822;23.564;2023-12-28T01:17:46;-11106.84;;;6.24;58.94
10145;BME280;5113;41.822;23.564;2023-12-28T01:20:53;-11121.72;;;6.78;56.59
10145;BME280;5113;41.822;23.564;2023-12-28T01:24:02;-11108.94;;;6.32;58.98
10145;BME280;5113;41.822;23.564;2023-12-28T01:27:08;-11115.41;;;6.55;57.87
10145;BME280;5113;41.822;23.564;2023-12-28T01:30:15;-11129.88;;;7.07;56.97
10145;BME280;5113;41.822;23.564;2023-12-28T01:33:22;-11122.97;;;6.82;57.23
10145;BME280;5113;41.822;23.564;2023-12-28T01:36:28;-11108.94;;;6.32;58.55
10145;BME280;5113;41.822;23.564;2023-12-28T01:39:36;-11081.28;;;5.31;59.40
10145;BME280;5113;41.822;23.564;2023-12-28T01:42:45;-11086.59;;;5.51;58.10
10145;BME280;5113;41.822;23.564;2023-12-28T01:45:51;-11093.50;;;5.76;57.68
10145;BME280;5113;41.822;23.564;2023-12-28T01:49:00;-11117.94;;;6.64;56.07
10145;BME280;5113;41.822;23.564;2023-12-28T01:52:07;-11116.53;;;6.59;56.29
10145;BME280;5113;41.822;23.564;2023-12-28T01:55:15;-11093.50;;;5.76;59.01
10145;BME280;5113;41.822;23.564;2023-12-28T01:58:23;-11110.75;;;6.38;59.07
10145;BME280;5113;41.822;23.564;2023-12-28T02:01:30;-11097.84;;;5.91;58.55
10145;BME280;5113;41.822;23.564;2023-12-28T02:04:37;-11106.00;;;6.21;57.60
10145;BME280;5113;41.822;23.564;2023-12-28T02:07:44;-11085.47;;;5.47;58.88
10145;BME280;5113;41.822;23.564;2023-12-28T02:10:52;-11103.59;;;6.12;58.89
10145;BME280;5113;41.822;23.564;2023-12-28T02:14:00;-11110.47;;;6.37;57.69
10145;BME280;5113;41.822;23.564;2023-12-28T02:17:10;-11112.31;;;6.44;57.86
10145;BME280;5113;41.822;23.564;2023-12-28T02:20:20;-11115.13;;;6.54;57.38
10145;BME280;5113;41.822;23.564;2023-12-28T02:23:27;-11106.97;;;6.24;58.02
10145;BME280;5113;41.822;23.564;2023-12-28T02:26:36;-11124.53;;;6.88;56.90
10145;BME280;5113;41.822;23.564;2023-12-28T02:29:42;-11108.50;;;6.30;57.74
10145;BME280;5113;41.822;23.564;2023-12-28T02:32:56;-11108.78;;;6.31;57.11
10145;BME280;5113;41.822;23.564;2023-12-28T02:36:11;-11102.06;;;6.07;57.16
10145;BME280;5113;41.822;23.564;2023-12-28T02:39:20;-11085.75;;;5.48;57.39
10145;BME280;5113;41.822;23.564;2023-12-28T02:42:30;-11094.47;;;5.79;56.60
10145;BME280;5113;41.822;23.564;2023-12-28T02:45:38;-11102.06;;;6.07;56.79
10145;BME280;5113;41.822;23.564;2023-12-28T02:48:45;-11101.63;;;6.05;57.39
10145;BME280;5113;41.822;23.564;2023-12-28T02:51:52;-11079.59;;;5.25;58.86
10145;BME280;5113;41.822;23.564;2023-12-28T02:54:59;-11072.84;;;5.01;60.43
10145;BME280;5113;41.822;23.564;2023-12-28T02:58:07;-11079.03;;;5.23;61.17
10145;BME280;5113;41.822;23.564;2023-12-28T03:01:13;-11099.53;;;5.97;58.72
10145;BME280;5113;41.822;23.564;2023-12-28T03:04:20;-11096.72;;;5.87;58.18
10145;BME280;5113;41.822;23.564;2023-12-28T03:07:27;-11092.78;;;5.73;58.53
10145;BME280;5113;41.822;23.564;2023-12-28T03:10:34;-11094.75;;;5.80;58.20
10145;BME280;5113;41.822;23.564;2023-12-28T03:13:42;-11091.25;;;5.68;59.54
10145;BME280;5113;41.822;23.564;2023-12-28T03:16:50;-11085.47;;;5.47;58.83
10145;BME280;5113;41.822;23.564;2023-12-28T03:19:56;-11073.41;;;5.03;61.52
10145;BME280;5113;41.822;23.564;2023-12-28T03:23:03;-11093.50;;;5.76;59.19
10145;BME280;5113;41.822;23.564;2023-12-28T03:26:10;-11101.06;;;6.03;58.63
10145;BME280;5113;41.822;23.564;2023-12-28T03:29:20;-11103.75;;;6.13;57.74
10145;BME280;5113;41.822;23.564;2023-12-28T03:32:26;-11111.59;;;6.41;56.81
10145;BME280;5113;41.822;23.564;2023-12-28T03:35:33;-11101.78;;;6.06;58.55
10145;BME280;5113;41.822;23.564;2023-12-28T03:38:40;-11101.78;;;6.06;57.69
10145;BME280;5113;41.822;23.564;2023-12-28T03:41:47;-11101.63;;;6.05;58.46
10145;BME280;5113;41.822;23.564;2023-12-28T03:44:55;-11100.38;;;6.01;58.19
10145;BME280;5113;41.822;23.564;2023-12-28T03:48:01;-11106.84;;;6.24;57.17
10145;BME280;5113;41.822;23.564;2023-12-28T03:51:13;-11093.63;;;5.76;57.92
10145;BME280;5113;41.822;23.564;2023-12-28T03:54:20;-11096.72;;;5.87;57.87
10145;BME280;5113;41.822;23.564;2023-12-28T03:57:27;-11119.88;;;6.71;55.77
10145;BME280;5113;41.822;23.564;2023-12-28T04:00:37;-11078.59;;;5.22;58.51
10145;BME280;5113;41.822;23.564;2023-12-28T04:03:44;-11059.66;;;4.53;61.03
10145;BME280;5113;41.822;23.564;2023-12-28T04:06:51;-11083.38;;;5.39;60.18
10145;BME280;5113;41.822;23.564;2023-12-28T04:09:58;-11081.00;;;5.30;59.16
10145;BME280;5113;41.822;23.564;2023-12-28T04:13:04;-11103.19;;;6.11;57.27
10145;BME280;5113;41.822;23.564;2023-12-28T04:16:13;-11091.66;;;5.69;57.95
10145;BME280;5113;41.822;23.564;2023-12-28T04:19:21;-11081.28;;;5.31;59.43
10145;BME280;5113;41.822;23.564;2023-12-28T04:22:27;-11079.72;;;5.26;59.24
10145;BME280;5113;41.822;23.564;2023-12-28T04:25:34;-11067.78;;;4.83;58.65
10145;BME280;5113;41.822;23.564;2023-12-28T04:28:41;-11076.63;;;5.15;58.68
10145;BME280;5113;41.822;23.564;2023-12-28T04:31:49;-11091.09;;;5.67;58.01
10145;BME280;5113;41.822;23.564;2023-12-28T04:34:56;-11094.47;;;5.79;56.83
10145;BME280;5113;41.822;23.564;2023-12-28T04:38:03;-11106.56;;;6.23;55.97
10145;BME280;5113;41.822;23.564;2023-12-28T04:41:10;-11111.59;;;6.41;56.40
10145;BME280;5113;41.822;23.564;2023-12-28T04:44:17;-11105.28;;;6.18;56.20
10145;BME280;5113;41.822;23.564;2023-12-28T04:47:25;-11081.41;;;5.32;57.47
10145;BME280;5113;41.822;23.564;2023-12-28T04:50:32;-11081.41;;;5.32;56.60
10145;BME280;5113;41.822;23.564;2023-12-28T04:53:41;-11078.47;;;5.21;55.94
10145;BME280;5113;41.822;23.564;2023-12-28T04:56:48;-11086.59;;;5.51;55.87
10145;BME280;5113;41.822;23.564;2023-12-28T04:59:54;-11079.72;;;5.26;56.18
10145;BME280;5113;41.822;23.564;2023-12-28T05:03:03;-11074.25;;;5.06;57.10
10145;BME280;5113;41.822;23.564;2023-12-28T05:06:09;-11065.00;;;4.73;58.41
10145;BME280;5113;41.822;23.564;2023-12-28T05:09:16;-11062.03;;;4.62;59.20
10145;BME280;5113;41.822;23.564;2023-12-28T05:12:22;-11084.34;;;5.43;57.01
10145;BME280;5113;41.822;23.564;2023-12-28T05:15:32;-11089.69;;;5.62;57.00
10145;BME280;5113;41.822;23.564;2023-12-28T05:18:40;-11094.88;;;5.81;56.32
10145;BME280;5113;41.822;23.564;2023-12-28T05:21:48;-11094.19;;;5.78;56.14
10145;BME280;5113;41.822;23.564;2023-12-28T05:24:54;-11096.16;;;5.85;55.61
10145;BME280;5113;41.822;23.564;2023-12-28T05:28:01;-11114.56;;;6.52;54.57
10145;BME280;5113;41.822;23.564;2023-12-28T05:31:08;-11091.09;;;5.67;56.07
10145;BME280;5113;41.822;23.564;2023-12-28T05:34:16;-11074.81;;;5.08;57.80
10145;BME280;5113;41.822;23.564;2023-12-28T05:37:22;-11063.31;;;4.67;58.27
10145;BME280;5113;41.822;23.564;2023-12-28T05:40:29;-11083.50;;;5.40;56.12
10145;BME280;5113;41.822;23.564;2023-12-28T05:43:35;-11089.41;;;5.61;55.07
10145;BME280;5113;41.822;23.564;2023-12-28T05:46:42;-11051.25;;;4.23;58.48
10145;BME280;5113;41.822;23.564;2023-12-28T05:49:50;-11042.53;;;3.91;59.40
10145;BME280;5113;41.822;23.564;2023-12-28T05:52:58;-11056.56;;;4.42;59.45
10145;BME280;5113;41.822;23.564;2023-12-28T05:56:05;-11033.84;;;3.60;61.10
10145;BME280;5113;41.822;23.564;2023-12-28T05:59:12;-11047.59;;;4.10;59.88
10145;BME280;5113;41.822;23.564;2023-12-28T06:02:22;-11067.22;;;4.81;58.48
10145;BME280;5113;41.822;23.564;2023-12-28T06:05:30;-11076.78;;;5.15;56.97
10145;BME280;5113;41.822;23.564;2023-12-28T06:08:37;-11092.09;;;5.71;55.90
10145;BME280;5113;41.822;23.564;2023-12-28T06:11:44;-11094.31;;;5.79;55.48
10145;BME280;5113;41.822;23.564;2023-12-28T06:14:50;-11093.06;;;5.74;56.23
10145;BME280;5113;41.822;23.564;2023-12-28T06:17:57;-11097.28;;;5.89;56.06
10145;BME280;5113;41.822;23.564;2023-12-28T06:21:07;-11100.22;;;6.00;55.76
10145;BME280;5113;41.822;23.564;2023-12-28T06:24:15;-11102.91;;;6.10;55.01
10145;BME280;5113;41.822;23.564;2023-12-28T06:27:21;-11097.28;;;5.89;55.76
10145;BME280;5113;41.822;23.564;2023-12-28T06:30:28;-11133.78;;;7.21;53.64
10145;BME280;5113;41.822;23.564;2023-12-28T06:33:35;-11122.00;;;6.79;54.56
10145;BME280;5113;41.822;23.564;2023-12-28T06:36:46;-11103.47;;;6.12;55.23
10145;BME280;5113;41.822;23.564;2023-12-28T06:39:52;-11101.34;;;6.04;54.61
10145;BME280;5113;41.822;23.564;2023-12-28T06:42:59;-11113.28;;;6.47;53.76
10145;BME280;5113;41.822;23.564;2023-12-28T06:46:06;-11105.16;;;6.18;53.39
10145;BME280;5113;41.822;23.564;2023-12-28T06:49:14;-11131.69;;;7.14;52.59
10145;BME280;5113;41.822;23.564;2023-12-28T06:52:22;-11121.44;;;6.77;53.45
10145;BME280;5113;41.822;23.564;2023-12-28T06:55:28;-11081.41;;;5.32;56.45
10145;BME280;5113;41.822;23.564;2023-12-28T06:58:36;-11102.19;;;6.07;55.13
10145;BME280;5113;41.822;23.564;2023-12-28T07:01:43;-11115.81;;;6.56;54.67
10145;BME280;5113;41.822;23.564;2023-12-28T07:04:50;-11104.44;;;6.15;57.04
10145;BME280;5113;41.822;23.564;2023-12-28T07:07:58;-11127.34;;;6.98;55.97
10145;BME280;5113;41.822;23.564;2023-12-28T07:11:05;-11116.81;;;6.60;57.55
10145;BME280;5113;41.822;23.564;2023-12-28T07:14:12;-11143.22;;;7.55;55.50
10145;BME280;5113;41.822;23.564;2023-12-28T07:17:20;-11139.00;;;7.40;56.33
10145;BME280;5113;41.822;23.564;2023-12-28T07:20:26;-11150.94;;;7.83;56.13
10145;BME280;5113;41.822;23.564;2023-12-28T07:23:34;-11146.16;;;7.66;55.31
10145;BME280;5113;41.822;23.564;2023-12-28T07:26:41;-11151.78;;;7.86;54.85
10145;BME280;5113;41.822;23.564;2023-12-28T07:29:48;-11164.44;;;8.32;54.07
10145;BME280;5113;41.822;23.564;2023-12-28T07:32:55;-11160.22;;;8.17;56.37
10145;BME280;5113;41.822;23.564;2023-12-28T07:36:02;-11170.47;;;8.54;55.42
10145;BME280;5113;41.822;23.564;2023-12-28T07:39:12;-11133.22;;;7.19;59.75
10145;BME280;5113;41.822;23.564;2023-12-28T07:42:20;-11163.31;;;8.28;57.24
10145;BME280;5113;41.822;23.564;2023-12-28T07:45:27;-11161.19;;;8.20;56.65
10145;BME280;5113;41.822;23.564;2023-12-28T07:48:34;-11157.53;;;8.07;58.66
10145;BME280;5113;41.822;23.564;2023-12-28T07:51:41;-11142.78;;;7.54;60.05
10145;BME280;5113;41.822;23.564;2023-12-28T07:54:50;-11190.28;;;9.25;55.90
10145;BME280;5113;41.822;23.564;2023-12-28T07:57:56;-11209.41;;;9.94;54.30
10145;BME280;5113;41.822;23.564;2023-12-28T08:01:09;-11210.13;;;9.97;54.17
10145;BME280;5113;41.822;23.564;2023-12-28T08:04:16;-11210.81;;;10.00;53.61
10145;BME280;5113;41.822;23.564;2023-12-28T08:07:23;-11193.53;;;9.37;55.55
10145;BME280;5113;41.822;23.564;2023-12-28T08:10:31;-11211.81;;;10.03;53.95
10145;BME280;5113;41.822;23.564;2023-12-28T08:13:38;-11211.81;;;10.03;55.15
10145;BME280;5113;41.822;23.564;2023-12-28T08:16:44;-11222.50;;;10.42;54.24
10145;BME280;5113;41.822;23.564;2023-12-28T08:19:51;-11231.22;;;10.73;53.11
10145;BME280;5113;41.822;23.564;2023-12-28T08:22:58;-11262.44;;;11.86;51.90
10145;BME280;5113;41.822;23.564;2023-12-28T08:26:22;-11236.84;;;10.94;54.61
10145;BME280;5113;41.822;23.564;2023-12-28T08:29:29;-11225.59;;;10.53;54.92
10145;BME280;5113;41.822;23.564;2023-12-28T08:32:36;-11261.47;;;11.82;51.96
10145;BME280;5113;41.822;23.564;2023-12-28T08:35:43;-11224.19;;;10.48;54.94
10145;BME280;5113;41.822;23.564;2023-12-28T08:38:50;-11273.16;;;12.24;51.54
10145;BME280;5113;41.822;23.564;2023-12-28T08:41:58;-11267.09;;;12.03;51.85
10145;BME280;5113;41.822;23.564;2023-12-28T08:45:05;-11245.72;;;11.25;54.06
10145;BME280;5113;41.822;23.564;2023-12-28T08:48:12;-11240.22;;;11.06;54.29
10145;BME280;5113;41.822;23.564;2023-12-28T08:51:19;-11228.69;;;10.64;54.40
10145;BME280;5113;41.822;23.564;2023-12-28T08:54:26;-11259.34;;;11.75;53.03
10145;BME280;5113;41.822;23.564;2023-12-28T08:57:34;-11263.31;;;11.89;52.23
10145;BME280;5113;41.822;23.564;2023-12-28T09:00:48;-11263.72;;;11.90;51.96
10145;BME280;5113;41.822;23.564;2023-12-28T09:03:55;-11245.16;;;11.23;53.62
10145;BME280;5113;41.822;23.564;2023-12-28T09:07:02;-11273.56;;;12.26;52.15
10145;BME280;5113;41.822;23.564;2023-12-28T09:10:10;-11307.63;;;13.49;49.15
10145;BME280;5113;41.822;23.564;2023-12-28T09:13:18;-11300.03;;;13.21;49.01
10145;BME280;5113;41.822;23.564;2023-12-28T09:16:25;-11293.97;;;13.00;50.34
10145;BME280;5113;41.822;23.564;2023-12-28T09:19:33;-11310.44;;;13.59;49.19
10145;BME280;5113;41.822;23.564;2023-12-28T09:22:40;-11278.50;;;12.44;49.81
10145;BME280;5113;41.822;23.564;2023-12-28T09:25:46;-11301.03;;;13.25;49.75
10145;BME280;5113;41.822;23.564;2023-12-28T09:28:55;-11295.25;;;13.04;49.43
10145;BME280;5113;41.822;23.564;2023-12-28T09:32:02;-11304.41;;;13.37;48.82
10145;BME280;5113;41.822;23.564;2023-12-28T09:35:09;-11314.53;;;13.74;48.00
10145;BME280;5113;41.822;23.564;2023-12-28T09:38:15;-11318.75;;;13.89;48.11
10145;BME280;5113;41.822;23.564;2023-12-28T09:41:25;-11324.09;;;14.08;48.63
10145;BME280;5113;41.822;23.564;2023-12-28T09:44:36;-11276.66;;;12.37;50.96
10145;BME280;5113;41.822;23.564;2023-12-28T09:47:45;-11298.06;;;13.14;50.39
10145;BME280;5113;41.822;23.564;2023-12-28T09:50:54;-11327.06;;;14.19;48.31
10145;BME280;5113;41.822;23.564;2023-12-28T09:54:03;-11327.06;;;14.19;48.18
10145;BME280;5113;41.822;23.564;2023-12-28T09:57:10;-11321.56;;;13.99;48.86
10145;BME280;5113;41.822;23.564;2023-12-28T10:00:20;-11331.16;;;14.34;49.30
10145;BME280;5113;41.822;23.564;2023-12-28T10:03:26;-11357.34;;;15.28;46.26
10145;BME280;5113;41.822;23.564;2023-12-28T10:06:34;-11344.53;;;14.82;46.97
10145;BME280;5113;41.822;23.564;2023-12-28T10:09:40;-11356.38;;;15.25;46.92
10145;BME280;5113;41.822;23.564;2023-12-28T10:12:47;-11347.06;;;14.91;47.23
10145;BME280;5113;41.822;23.564;2023-12-28T10:15:58;-11362.00;;;15.45;46.13
10145;BME280;5113;41.822;23.564;2023-12-28T10:19:05;-11358.06;;;15.31;46.16
10145;BME280;5113;41.822;23.564;2023-12-28T10:22:13;-11340.59;;;14.68;46.57
10145;BME280;5113;41.822;23.564;2023-12-28T10:25:20;-11350.16;;;15.02;46.33
10145;BME280;5113;41.822;23.564;2023-12-28T10:28:27;-11387.22;;;16.36;44.96
10145;BME280;5113;41.822;23.564;2023-12-28T10:31:35;-11346.38;;;14.89;46.64
10145;BME280;5113;41.822;23.564;2023-12-28T10:34:42;-11386.94;;;16.35;44.09
10145;BME280;5113;41.822;23.564;2023-12-28T10:37:52;-11388.19;;;16.39;43.72
10145;BME280;5113;41.822;23.564;2023-12-28T10:40:59;-11400.47;;;16.83;43.13
10145;BME280;5113;41.822;23.564;2023-12-28T10:44:06;-11409.34;;;17.15;43.48
10145;BME280;5113;41.822;23.564;2023-12-28T10:47:16;-11396.94;;;16.71;44.01
10145;BME280;5113;41.822;23.564;2023-12-28T10:50:27;-11424.56;;;17.70;42.07
10145;BME280;5113;41.822;23.564;2023-12-28T10:53:44;-11364.09;;;15.52;45.32
10145;BME280;5113;41.822;23.564;2023-12-28T10:56:59;-11398.06;;;16.75;44.04
10145;BME280;5113;41.822;23.564;2023-12-28T11:00:10;-11393.97;;;16.60;44.06
10145;BME280;5113;41.822;23.564;2023-12-28T11:03:23;-11418.22;;;17.47;43.75
10145;BME280;5113;41.822;23.564;2023-12-28T11:06:35;-11379.47;;;16.08;44.46
10145;BME280;5113;41.822;23.564;2023-12-28T11:09:43;-11424.28;;;17.69;42.54
10145;BME280;5113;41.822;23.564;2023-12-28T11:12:51;-11401.72;;;16.88;43.66
10145;BME280;5113;41.822;23.564;2023-12-28T11:15:59;-11392.00;;;16.53;42.87
10145;BME280;5113;41.822;23.564;2023-12-28T11:19:08;-11381.88;;;16.16;43.21
10145;BME280;5113;41.822;23.564;2023-12-28T11:22:17;-11420.91;;;17.57;41.90
10145;BME280;5113;41.822;23.564;2023-12-28T11:25:23;-11413.72;;;17.31;42.06
10145;BME280;5113;41.822;23.564;2023-12-28T11:28:37;-11451.06;;;18.66;40.33
10145;BME280;5113;41.822;23.564;2023-12-28T11:31:43;-11425.41;;;17.73;40.23
10145;BME280;5113;41.822;23.564;2023-12-28T11:34:58;-11420.63;;;17.56;39.90
10145;BME280;5113;41.822;23.564;2023-12-28T11:38:06;-11424.28;;;17.69;40.26
10145;BME280;5113;41.822;23.564;2023-12-28T11:41:16;-11416.38;;;17.41;40.42
10145;BME280;5113;41.822;23.564;2023-12-28T11:44:26;-11406.81;;;17.06;41.68
10145;BME280;5113;41.822;23.564;2023-12-28T11:47:32;-11448.81;;;18.58;42.14
10145;BME280;5113;41.822;23.564;2023-12-28T11:50:41;-11426.13;;;17.76;39.92
10145;BME280;5113;41.822;23.564;2023-12-28T11:53:48;-11409.34;;;17.15;41.24
10145;BME280;5113;41.822;23.564;2023-12-28T11:56:55;-11437.81;;;18.18;40.12
10145;BME280;5113;41.822;23.564;2023-12-28T12:00:02;-11467.44;;;19.25;38.93
10145;BME280;5113;41.822;23.564;2023-12-28T12:03:10;-11436.41;;;18.13;39.02
10145;BME280;5113;41.822;23.564;2023-12-28T12:06:20;-11427.66;;;17.81;39.47
10145;BME280;5113;41.822;23.564;2023-12-28T12:09:27;-11440.91;;;18.29;39.77
10145;BME280;5113;41.822;23.564;2023-12-28T12:12:37;-11431.47;;;17.95;38.90
10145;BME280;5113;41.822;23.564;2023-12-28T12:15:44;-11484.34;;;19.86;36.53
10145;BME280;5113;41.822;23.564;2023-12-28T12:18:50;-11469.97;;;19.34;37.31
10145;BME280;5113;41.822;23.564;2023-12-28T12:21:58;-11451.63;;;18.68;38.37
10145;BME280;5113;41.822;23.564;2023-12-28T12:25:06;-11433.44;;;18.02;38.69
10145;BME280;5113;41.822;23.564;2023-12-28T12:28:14;-11473.06;;;19.45;37.94
10145;BME280;5113;41.822;23.564;2023-12-28T12:31:20;-11482.66;;;19.79;36.49
10145;BME280;5113;41.822;23.564;2023-12-28T12:34:27;-11489.84;;;20.05;36.22
10145;BME280;5113;41.822;23.564;2023-12-28T12:37:37;-11469.97;;;19.34;37.33
10145;BME280;5113;41.822;23.564;2023-12-28T12:40:43;-11468.00;;;19.27;37.84
10145;BME280;5113;41.822;23.564;2023-12-28T12:43:50;-11495.06;;;20.24;36.92
10145;BME280;5113;41.822;23.564;2023-12-28T12:46:57;-11491.81;;;20.13;36.73
10145;BME280;5113;41.822;23.564;2023-12-28T12:50:06;-11472.22;;;19.42;37.55
10145;BME280;5113;41.822;23.564;2023-12-28T12:53:14;-11476.47;;;19.57;38.29
10145;BME280;5113;41.822;23.564;2023-12-28T12:56:20;-11495.50;;;20.26;37.76
10145;BME280;5113;41.822;23.564;2023-12-28T12:59:27;-11504.09;;;20.57;37.49
10145;BME280;5113;41.822;23.564;2023-12-28T13:02:34;-11495.63;;;20.26;37.32
10145;BME280;5113;41.822;23.564;2023-12-28T13:05:41;-11494.66;;;20.23;37.54
10145;BME280;5113;41.822;23.564;2023-12-28T13:08:51;-11494.50;;;20.22;38.12
10145;BME280;5113;41.822;23.564;2023-12-28T13:11:58;-11498.03;;;20.35;38.20
10145;BME280;5113;41.822;23.564;2023-12-28T13:15:05;-11515.09;;;20.96;36.98
10145;BME280;5113;41.822;23.564;2023-12-28T13:18:14;-11501.13;;;20.46;37.03
10145;BME280;5113;41.822;23.564;2023-12-28T13:21:20;-11475.63;;;19.54;38.06
10145;BME280;5113;41.822;23.564;2023-12-28T13:24:28;-11485.34;;;19.89;37.88
10145;BME280;5113;41.822;23.564;2023-12-28T13:27:35;-11477.44;;;19.61;37.63
10145;BME280;5113;41.822;23.564;2023-12-28T13:30:42;-11487.19;;;19.96;36.69
10145;BME280;5113;41.822;23.564;2023-12-28T13:33:49;-11471.22;;;19.38;37.34
10145;BME280;5113;41.822;23.564;2023-12-28T13:36:56;-11489.84;;;20.05;36.81
10145;BME280;5113;41.822;23.564;2023-12-28T13:40:07;-11473.34;;;19.46;37.36
10145;BME280;5113;41.822;23.564;2023-12-28T13:43:14;-11449.94;;;18.62;38.41
10145;BME280;5113;41.822;23.564;2023-12-28T13:46:21;-11421.88;;;17.61;39.80
10145;BME280;5113;41.822;23.564;2023-12-28T13:49:28;-11431.47;;;17.95;39.76
10145;BME280;5113;41.822;23.564;2023-12-28T13:52:34;-11417.50;;;17.45;41.81
10145;BME280;5113;41.822;23.564;2023-12-28T13:55:42;-11407.22;;;17.08;42.59
10145;BME280;5113;41.822;23.564;2023-12-28T13:58:49;-11397.22;;;16.72;43.37
10145;BME280;5113;41.822;23.564;2023-12-28T14:01:55;-11389.63;;;16.44;43.74
10145;BME280;5113;41.822;23.564;2023-12-28T14:05:03;-11367.50;;;15.65;44.39
10145;BME280;5113;41.822;23.564;2023-12-28T14:08:10;-11365.53;;;15.58;44.92
10145;BME280;5113;41.822;23.564;2023-12-28T14:11:18;-11351.44;;;15.07;46.30
10145;BME280;5113;41.822;23.564;2023-12-28T14:14:25;-11328.63;;;14.25;47.67
10145;BME280;5113;41.822;23.564;2023-12-28T14:17:32;-11331.00;;;14.33;47.75
10145;BME280;5113;41.822;23.564;2023-12-28T14:20:38;-11320.03;;;13.94;48.71
10145;BME280;5113;41.822;23.564;2023-12-28T14:23:45;-11328.75;;;14.25;48.67
10145;BME280;5113;41.822;23.564;2023-12-28T14:26:54;-11352.97;;;15.12;46.60
10145;BME280;5113;41.822;23.564;2023-12-28T14:30:01;-11330.03;;;14.30;48.30
10145;BME280;5113;41.822;23.564;2023-12-28T14:33:09;-11330.16;;;14.30;48.62
10145;BME280;5113;41.822;23.564;2023-12-28T14:36:24;-11340.88;;;14.69;47.79
10145;BME280;5113;41.822;23.564;2023-12-28T14:39:33;-11346.78;;;14.90;46.90
10145;BME280;5113;41.822;23.564;2023-12-28T14:42:41;-11344.09;;;14.80;47.33
10145;BME280;5113;41.822;23.564;2023-12-28T14:45:49;-11334.66;;;14.46;47.90
10145;BME280;5113;41.822;23.564;2023-12-28T14:48:57;-11337.34;;;14.56;47.63
10145;BME280;5113;41.822;23.564;2023-12-28T14:52:05;-11309.59;;;13.56;49.23
10145;BME280;5113;41.822;23.564;2023-12-28T14:55:11;-11296.66;;;13.09;50.57
10145;BME280;5113;41.822;23.564;2023-12-28T14:58:19;-11282.16;;;12.57;52.04
10145;BME280;5113;41.822;23.564;2023-12-28T15:01:27;-11284.97;;;12.67;51.94
10145;BME280;5113;41.822;23.564;2023-12-28T15:04:34;-11275.25;;;12.32;52.41
10145;BME280;5113;41.822;23.564;2023-12-28T15:07:43;-11290.19;;;12.86;51.08
10145;BME280;5113;41.822;23.564;2023-12-28T15:10:50;-11291.03;;;12.89;50.94
10145;BME280;5113;41.822;23.564;2023-12-28T15:13:59;-11284.84;;;12.67;51.64
10145;BME280;5113;41.822;23.564;2023-12-28T15:17:08;-11303.69;;;13.35;50.02
10145;BME280;5113;41.822;23.564;2023-12-28T15:20:16;-11261.19;;;11.81;53.17
10145;BME280;5113;41.822;23.564;2023-12-28T15:23:24;-11280.47;;;12.51;52.02
10145;BME280;5113;41.822;23.564;2023-12-28T15:26:32;-11262.72;;;11.87;53.13
10145;BME280;5113;41.822;23.564;2023-12-28T15:29:40;-11301.03;;;13.25;50.37
10145;BME280;5113;41.822;23.564;2023-12-28T15:32:47;-11257.25;;;11.67;52.97
10145;BME280;5113;41.822;23.564;2023-12-28T15:35:54;-11227.69;;;10.61;55.04
10145;BME280;5113;41.822;23.564;2023-12-28T15:39:00;-11210.25;;;9.98;58.35
10145;BME280;5113;41.822;23.564;2023-12-28T15:42:10;-11233.03;;;10.80;56.17
10145;BME280;5113;41.822;23.564;2023-12-28T15:45:18;-11261.03;;;11.81;53.61
10145;BME280;5113;41.822;23.564;2023-12-28T15:48:25;-11252.19;;;11.49;54.01
10145;BME280;5113;41.822;23.564;2023-12-28T15:51:31;-11261.88;;;11.84;53.15
10145;BME280;5113;41.822;23.564;2023-12-28T15:54:38;-11277.66;;;12.41;52.00
10145;BME280;5113;41.822;23.564;2023-12-28T15:57:44;-11246.84;;;11.30;53.35
10145;BME280;5113;41.822;23.564;2023-12-28T16:00:52;-11206.88;;;9.85;57.59
10145;BME280;5113;41.822;23.564;2023-12-28T16:03:59;-11218.28;;;10.27;57.03
10145;BME280;5113;41.822;23.564;2023-12-28T16:07:05;-11230.22;;;10.70;55.77
10145;BME280;5113;41.822;23.564;2023-12-28T16:10:12;-11196.47;;;9.48;59.70
10145;BME280;5113;41.822;23.564;2023-12-28T16:13:19;-11192.25;;;9.33;59.97
10145;BME280;5113;41.822;23.564;2023-12-28T16:16:27;-11227.84;;;10.61;56.85
10145;BME280;5113;41.822;23.564;2023-12-28T16:19:35;-11236.84;;;10.94;54.62
10145;BME280;5113;41.822;23.564;2023-12-28T16:22:41;-11234.03;;;10.83;55.10
10145;BME280;5113;41.822;23.564;2023-12-28T16:25:48;-11237.00;;;10.94;53.41
10145;BME280;5113;41.822;23.564;2023-12-28T16:28:55;-11252.88;;;11.51;52.61